Time;durP1;ratioP1;P1;durP2;ratioP2;P2;SDS_P1;SDS_P2;PMS_P1;PMS_P2;Temp;Humidity;BMP_temperature;BMP_pressure;BME280_temperature;BME280_humidity;BME280_pressure;Samples;Min_cycle;Max_cycle;Signal;HPM_P1;HPM_P2
2022/03/24 00:00:38;;;;;;;39.22;18.65;;;;;;;;;;5033893;28;20037;-55
2022/03/24 00:03:05;;;;;;;28.30;13.48;;;;;;;;;;5033670;28;20040;-55
2022/03/24 00:05:31;;;;;;;27.02;11.80;;;;;;;;;;5034189;28;20425;-57
2022/03/24 00:07:57;;;;;;;28.20;13.43;;;;;;;;;;5111458;28;20403;-56
2022/03/24 00:10:23;;;;;;;32.20;14.52;;;;;;;;;;5116325;28;20055;-52
2022/03/24 00:12:51;;;;;;;40.10;16.63;;;;;;;;;;5116272;28;20026;-53
2022/03/24 00:15:20;;;;;;;28.55;13.70;;;;;;;;;;5129975;27;20106;-55
2022/03/24 00:17:46;;;;;;;38.03;14.48;;;;;;;;;;5136802;27;20031;-56
2022/03/24 00:20:12;;;;;;;35.85;16.50;;;;;;;;;;5136804;27;20437;-55
2022/03/24 00:22:39;;;;;;;39.17;17.52;;;;;;;;;;5136582;27;20031;-54
2022/03/24 00:25:06;;;;;;;49.88;22.67;;;;;;;;;;5137113;27;20023;-54
2022/03/24 00:27:32;;;;;;;58.25;25.98;;;;;;;;;;5136847;27;20023;-53
2022/03/24 00:29:58;;;;;;;63.40;27.67;;;;;;;;;;5136617;27;20146;-57
2022/03/24 00:32:24;;;;;;;59.97;25.48;;;;;;;;;;5136572;27;20063;-56
2022/03/24 00:34:50;;;;;;;54.15;24.42;;;;;;;;;;5136523;27;20054;-56
2022/03/24 00:37:17;;;;;;;44.38;19.77;;;;;;;;;;5136498;27;20023;-55
2022/03/24 00:39:43;;;;;;;46.88;20.65;;;;;;;;;;5136609;27;20031;-56
2022/03/24 00:42:11;;;;;;;43.95;20.30;;;;;;;;;;5136492;27;20067;-55
2022/03/24 00:44:37;;;;;;;43.50;19.42;;;;;;;;;;5136473;27;20019;-56
2022/03/24 00:47:04;;;;;;;51.80;20.90;;;;;;;;;;5136278;27;20031;-56
2022/03/24 00:49:31;;;;;;;50.40;21.40;;;;;;;;;;5136049;27;20050;-52
2022/03/24 00:51:57;;;;;;;53.00;21.45;;;;;;;;;;5118148;27;20378;-53
2022/03/24 00:54:23;;;;;;;52.15;23.20;;;;;;;;;;5136142;27;20023;-54
2022/03/24 00:56:50;;;;;;;66.47;28.63;;;;;;;;;;5136197;27;20023;-57
2022/03/24 00:59:16;;;;;;;72.55;28.15;;;;;;;;;;5136239;27;20118;-56
2022/03/24 01:01:42;;;;;;;78.35;32.40;;;;;;;;;;5135942;27;20490;-54
2022/03/24 01:04:09;;;;;;;75.00;33.78;;;;;;;;;;5136097;27;20092;-54
2022/03/24 01:06:35;;;;;;;64.78;29.08;;;;;;;;;;5135854;27;20023;-54
2022/03/24 01:09:05;;;;;;;65.25;28.38;;;;;;;;;;5135916;27;20459;-54
2022/03/24 01:11:32;;;;;;;63.35;26.13;;;;;;;;;;5135912;27;20106;-53
2022/03/24 01:14:00;;;;;;;68.28;28.08;;;;;;;;;;5136070;27;20469;-56
2022/03/24 01:16:26;;;;;;;56.10;25.77;;;;;;;;;;5135775;27;20156;-53
2022/03/24 01:18:52;;;;;;;55.15;24.50;;;;;;;;;;5136011;27;20074;-53
2022/03/24 01:21:18;;;;;;;47.60;22.45;;;;;;;;;;5135732;27;20019;-54
2022/03/24 01:23:47;;;;;;;45.05;20.92;;;;;;;;;;5135534;27;20475;-55
2022/03/24 01:26:15;;;;;;;48.55;20.90;;;;;;;;;;5135796;27;20023;-54
2022/03/24 01:28:42;;;;;;;42.95;20.17;;;;;;;;;;5135527;27;20124;-53
2022/03/24 01:31:08;;;;;;;46.03;19.83;;;;;;;;;;5135504;27;20047;-56
2022/03/24 01:33:39;;;;;;;52.05;23.30;;;;;;;;;;5135514;27;20030;-57
2022/03/24 01:36:11;;;;;;;51.53;22.15;;;;;;;;;;5135371;27;20015;-53
2022/03/24 01:38:38;;;;;;;52.00;24.15;;;;;;;;;;5135549;27;20023;-55
2022/03/24 01:41:04;;;;;;;61.58;26.17;;;;;;;;;;5135163;27;20050;-52
2022/03/24 01:43:31;;;;;;;54.40;26.20;;;;;;;;;;5135343;27;20080;-54
2022/03/24 01:45:57;;;;;;;54.55;25.60;;;;;;;;;;5135270;27;20019;-55
2022/03/24 01:48:26;;;;;;;56.92;27.13;;;;;;;;;;5135003;27;20070;-56
2022/03/24 01:50:53;;;;;;;61.30;26.38;;;;;;;;;;5135149;27;20490;-55
2022/03/24 01:53:19;;;;;;;54.92;26.92;;;;;;;;;;5135034;27;20037;-54
2022/03/24 01:55:45;;;;;;;62.95;27.02;;;;;;;;;;5135304;27;20044;-53
2022/03/24 01:58:12;;;;;;;59.45;25.63;;;;;;;;;;5135090;27;20031;-53
2022/03/24 02:00:39;;;;;;;66.30;27.55;;;;;;;;;;5134444;27;20023;-55
2022/03/24 02:03:05;;;;;;;70.43;29.77;;;;;;;;;;5134838;27;20042;-55
2022/03/24 02:05:37;;;;;;;59.15;27.23;;;;;;;;;;5134843;27;20011;-55
2022/03/24 02:08:06;;;;;;;62.90;27.45;;;;;;;;;;5116873;27;20026;-55
2022/03/24 02:10:32;;;;;;;64.13;28.83;;;;;;;;;;5116281;27;20409;-54
2022/03/24 02:12:59;;;;;;;66.13;28.98;;;;;;;;;;5134778;27;20023;-55
2022/03/24 02:15:25;;;;;;;57.00;29.30;;;;;;;;;;5134657;27;20043;-57
2022/03/24 02:17:52;;;;;;;59.63;29.23;;;;;;;;;;5134665;27;20027;-55
2022/03/24 02:20:20;;;;;;;66.40;28.80;;;;;;;;;;5134497;27;20055;-55
2022/03/24 02:22:46;;;;;;;71.28;30.58;;;;;;;;;;5134451;27;20039;-54
2022/03/24 02:25:12;;;;;;;72.95;30.75;;;;;;;;;;5134609;27;20094;-58
2022/03/24 02:27:40;;;;;;;71.97;30.38;;;;;;;;;;5134681;27;20546;-54
2022/03/24 02:30:06;;;;;;;63.28;29.48;;;;;;;;;;5134530;27;20023;-54
2022/03/24 02:32:32;;;;;;;69.03;29.60;;;;;;;;;;5134435;27;20023;-55
2022/03/24 02:34:59;;;;;;;65.40;29.00;;;;;;;;;;5134409;27;20482;-58
2022/03/24 02:37:28;;;;;;;61.60;26.52;;;;;;;;;;5134479;27;20041;-55
2022/03/24 02:39:55;;;;;;;65.82;29.00;;;;;;;;;;5134349;27;20379;-55
2022/03/24 02:42:22;;;;;;;64.95;28.83;;;;;;;;;;5134269;27;20035;-55
2022/03/24 02:44:50;;;;;;;64.65;28.27;;;;;;;;;;5134307;27;20031;-55
2022/03/24 02:47:16;;;;;;;64.35;27.10;;;;;;;;;;5134081;27;20038;-54
2022/03/24 02:49:43;;;;;;;56.35;27.13;;;;;;;;;;5134109;27;20573;-57
2022/03/24 02:52:10;;;;;;;59.50;27.40;;;;;;;;;;5134471;28;20360;-55
2022/03/24 02:54:36;;;;;;;59.55;27.50;;;;;;;;;;5134276;28;20068;-55
2022/03/24 02:57:03;;;;;;;61.97;27.55;;;;;;;;;;5134323;28;20034;-56
2022/03/24 02:59:29;;;;;;;59.05;27.10;;;;;;;;;;5134130;28;20019;-54
2022/03/24 03:01:55;;;;;;;61.63;26.80;;;;;;;;;;5134154;28;20494;-54
2022/03/24 03:04:22;;;;;;;65.70;28.63;;;;;;;;;;5133985;28;20106;-55
2022/03/24 03:06:48;;;;;;;62.25;27.38;;;;;;;;;;5134133;28;20024;-56
2022/03/24 03:09:16;;;;;;;55.90;27.80;;;;;;;;;;5134363;28;20144;-56
2022/03/24 03:11:44;;;;;;;62.85;27.20;;;;;;;;;;5134471;27;20495;-55
2022/03/24 03:14:11;;;;;;;56.28;25.08;;;;;;;;;;5138260;27;20459;-59
2022/03/24 03:16:38;;;;;;;57.38;23.42;;;;;;;;;;5137969;27;20030;-55
2022/03/24 03:19:04;;;;;;;55.38;24.60;;;;;;;;;;5138044;27;20107;-60
2022/03/24 03:21:30;;;;;;;55.72;24.15;;;;;;;;;;5138212;27;20019;-54
2022/03/24 03:23:57;;;;;;;60.53;24.35;;;;;;;;;;5138013;27;20421;-54
2022/03/24 03:26:27;;;;;;;50.92;23.95;;;;;;;;;;5138058;27;20051;-57
2022/03/24 03:28:53;;;;;;;59.30;23.30;;;;;;;;;;5138132;27;20026;-55
2022/03/24 03:31:20;;;;;;;47.55;20.45;;;;;;;;;;5137863;27;20027;-57
2022/03/24 03:33:46;;;;;;;50.55;19.85;;;;;;;;;;5137598;27;20034;-53
2022/03/24 03:36:12;;;;;;;50.50;20.98;;;;;;;;;;5137875;27;20394;-55
2022/03/24 03:38:39;;;;;;;45.28;19.67;;;;;;;;;;5137671;27;20027;-55
2022/03/24 03:41:05;;;;;;;43.33;19.70;;;;;;;;;;5138003;27;20017;-55
2022/03/24 03:43:32;;;;;;;34.33;17.27;;;;;;;;;;5137465;27;20031;-55
2022/03/24 03:45:59;;;;;;;41.83;17.90;;;;;;;;;;5137354;27;20027;-55
2022/03/24 03:48:25;;;;;;;41.88;18.60;;;;;;;;;;5137373;27;20414;-54
2022/03/24 03:50:51;;;;;;;43.50;18.10;;;;;;;;;;5137525;27;20023;-54
2022/03/24 03:53:17;;;;;;;38.33;17.13;;;;;;;;;;5137422;27;20024;-55
2022/03/24 03:55:43;;;;;;;41.25;16.90;;;;;;;;;;5137548;27;20497;-54
2022/03/24 03:58:11;;;;;;;40.50;17.00;;;;;;;;;;5137389;27;20068;-55
2022/03/24 04:00:52;;;;;;;43.13;17.35;;;;;;;;;;5137215;27;20531;-55
2022/03/24 04:03:18;;;;;;;39.00;15.65;;;;;;;;;;5118603;27;20537;-54
2022/03/24 04:05:45;;;;;;;37.58;16.80;;;;;;;;;;5137356;27;20111;-54
2022/03/24 04:08:13;;;;;;;39.10;15.77;;;;;;;;;;5137276;27;20043;-55
2022/03/24 04:10:40;;;;;;;37.63;15.55;;;;;;;;;;5137381;27;20386;-55
2022/03/24 04:13:06;;;;;;;32.22;15.48;;;;;;;;;;5137110;27;20462;-55
2022/03/24 04:15:33;;;;;;;34.65;16.48;;;;;;;;;;5137062;27;20022;-55
2022/03/24 04:17:59;;;;;;;33.58;15.65;;;;;;;;;;5136655;27;20023;-55
2022/03/24 04:20:26;;;;;;;42.55;16.40;;;;;;;;;;5137076;27;20391;-58
2022/03/24 04:22:53;;;;;;;39.90;17.05;;;;;;;;;;5136190;27;20027;-58
2022/03/24 04:25:20;;;;;;;38.10;16.35;;;;;;;;;;5136795;27;20514;-57
2022/03/24 04:27:46;;;;;;;41.75;17.02;;;;;;;;;;5136743;27;20058;-58
2022/03/24 04:30:17;;;;;;;40.88;16.33;;;;;;;;;;5136732;27;20030;-55
2022/03/24 04:32:44;;;;;;;34.97;16.40;;;;;;;;;;5134381;27;20106;-55
2022/03/24 04:35:11;;;;;;;38.67;16.25;;;;;;;;;;5117042;27;20024;-58
2022/03/24 04:37:38;;;;;;;43.67;16.45;;;;;;;;;;5132344;27;20475;-57
2022/03/24 04:40:05;;;;;;;48.15;17.83;;;;;;;;;;5121034;27;20023;-58
2022/03/24 04:42:31;;;;;;;52.55;17.65;;;;;;;;;;5126752;27;20106;-58
2022/03/24 04:45:00;;;;;;;44.58;18.40;;;;;;;;;;5115837;28;20038;-55
2022/03/24 04:47:27;;;;;;;36.88;17.20;;;;;;;;;;5115614;28;20031;-58
2022/03/24 04:49:54;;;;;;;44.88;20.02;;;;;;;;;;5115589;28;20059;-54
2022/03/24 04:52:22;;;;;;;39.33;18.25;;;;;;;;;;5115659;28;20027;-54
2022/03/24 04:54:48;;;;;;;42.60;18.90;;;;;;;;;;5116021;28;20027;-57
2022/03/24 04:57:14;;;;;;;43.45;20.48;;;;;;;;;;5115971;28;20046;-56
2022/03/24 04:59:41;;;;;;;49.05;23.13;;;;;;;;;;5115728;28;20027;-54
2022/03/24 05:02:12;;;;;;;46.10;21.35;;;;;;;;;;5115089;28;20030;-57
2022/03/24 05:04:38;;;;;;;49.15;21.48;;;;;;;;;;5115512;28;20050;-59
2022/03/24 05:07:04;;;;;;;40.47;20.33;;;;;;;;;;5115608;28;20027;-61
2022/03/24 05:09:31;;;;;;;46.75;20.83;;;;;;;;;;5115387;28;20023;-61
2022/03/24 05:11:57;;;;;;;45.92;19.15;;;;;;;;;;5115457;28;20020;-56
2022/03/24 05:14:23;;;;;;;57.70;23.30;;;;;;;;;;5115493;28;20031;-54
2022/03/24 05:16:49;;;;;;;55.42;23.90;;;;;;;;;;5115003;28;20023;-55
2022/03/24 05:19:15;;;;;;;72.82;21.60;;;;;;;;;;5115150;28;20475;-58
2022/03/24 05:21:41;;;;;;;42.20;20.50;;;;;;;;;;5115112;28;20483;-52
2022/03/24 05:24:07;;;;;;;47.88;21.85;;;;;;;;;;5115240;28;20067;-52
2022/03/24 05:26:33;;;;;;;45.28;19.73;;;;;;;;;;5115172;28;20015;-55
2022/03/24 05:28:59;;;;;;;39.45;18.92;;;;;;;;;;5114991;28;20064;-54
2022/03/24 05:31:26;;;;;;;38.45;18.77;;;;;;;;;;5115111;28;20073;-54
2022/03/24 05:33:52;;;;;;;44.20;19.25;;;;;;;;;;5114731;28;20034;-53
2022/03/24 05:36:18;;;;;;;38.30;19.00;;;;;;;;;;5114542;28;20425;-53
2022/03/24 05:38:44;;;;;;;40.17;19.10;;;;;;;;;;5114878;28;20027;-54
2022/03/24 05:41:12;;;;;;;44.00;19.83;;;;;;;;;;5114885;28;20020;-54
2022/03/24 05:43:39;;;;;;;46.75;20.40;;;;;;;;;;5114579;28;20032;-55
2022/03/24 05:46:05;;;;;;;46.03;18.77;;;;;;;;;;5114593;28;20024;-53
2022/03/24 05:48:33;;;;;;;39.95;17.33;;;;;;;;;;5114682;28;20054;-53
2022/03/24 05:51:00;;;;;;;37.97;16.75;;;;;;;;;;5114680;28;20055;-52
2022/03/24 05:53:28;;;;;;;39.85;18.60;;;;;;;;;;5109509;28;20038;-54
2022/03/24 05:55:54;;;;;;;45.42;24.63;;;;;;;;;;5113761;28;20317;-56
2022/03/24 05:58:21;;;;;;;43.03;23.27;;;;;;;;;;5113358;28;20475;-54
2022/03/24 06:00:47;;;;;;;40.47;20.60;;;;;;;;;;5113152;28;20032;-54
2022/03/24 06:03:15;;;;;;;42.67;21.70;;;;;;;;;;5110484;28;20062;-54
2022/03/24 06:05:41;;;;;;;40.72;21.52;;;;;;;;;;5114170;28;20031;-55
2022/03/24 06:08:09;;;;;;;40.70;21.65;;;;;;;;;;5114490;28;20031;-55
2022/03/24 06:10:35;;;;;;;36.58;21.30;;;;;;;;;;5114026;28;20395;-55
2022/03/24 06:13:01;;;;;;;37.63;19.98;;;;;;;;;;5114323;28;20047;-55
2022/03/24 06:15:28;;;;;;;35.78;19.55;;;;;;;;;;5114850;28;20362;-55
2022/03/24 06:17:54;;;;;;;34.63;18.20;;;;;;;;;;5114304;28;20020;-54
2022/03/24 06:20:21;;;;;;;35.03;18.63;;;;;;;;;;5114063;28;20111;-57
2022/03/24 06:22:51;;;;;;;35.17;17.98;;;;;;;;;;5096037;28;20027;-56
2022/03/24 06:25:17;;;;;;;39.22;18.45;;;;;;;;;;5114271;28;20371;-55
2022/03/24 06:27:43;;;;;;;44.40;20.05;;;;;;;;;;5114036;28;20034;-53
2022/03/24 06:30:10;;;;;;;34.35;20.27;;;;;;;;;;5113895;28;20031;-52
2022/03/24 06:32:37;;;;;;;40.05;19.55;;;;;;;;;;5113664;28;20015;-53
2022/03/24 06:35:03;;;;;;;36.08;19.65;;;;;;;;;;5113964;28;20078;-50
2022/03/24 06:37:39;;;;;;;37.42;20.65;;;;;;;;;;5114047;28;20399;-55
2022/03/24 06:40:06;;;;;;;37.15;21.13;;;;;;;;;;5113698;28;20386;-55
2022/03/24 06:42:32;;;;;;;34.38;20.00;;;;;;;;;;5114066;28;20026;-54
2022/03/24 06:44:58;;;;;;;36.10;20.17;;;;;;;;;;5113554;28;20055;-56
2022/03/24 06:47:24;;;;;;;36.67;19.55;;;;;;;;;;5113646;28;20531;-54
2022/03/24 06:49:50;;;;;;;32.22;16.77;;;;;;;;;;5113526;28;20117;-54
2022/03/24 06:52:16;;;;;;;29.17;17.50;;;;;;;;;;5113466;28;20020;-53
2022/03/24 06:54:43;;;;;;;28.95;16.23;;;;;;;;;;5113450;28;20467;-53
2022/03/24 06:57:14;;;;;;;30.88;17.45;;;;;;;;;;5113352;28;20023;-52
2022/03/24 06:59:42;;;;;;;33.88;18.30;;;;;;;;;;5113533;28;20020;-51
2022/03/24 07:02:09;;;;;;;41.78;20.75;;;;;;;;;;5113547;28;20052;-55
2022/03/24 07:04:35;;;;;;;32.30;19.40;;;;;;;;;;5113873;28;20395;-52
2022/03/24 07:07:01;;;;;;;33.80;18.90;;;;;;;;;;5113696;28;20038;-53
2022/03/24 07:09:28;;;;;;;30.27;17.58;;;;;;;;;;5113588;28;20066;-54
2022/03/24 07:11:55;;;;;;;30.88;17.42;;;;;;;;;;5113529;28;20020;-55
2022/03/24 07:14:21;;;;;;;35.45;18.98;;;;;;;;;;5113284;28;20054;-55
2022/03/24 07:16:47;;;;;;;28.52;16.70;;;;;;;;;;5113498;28;20054;-54
2022/03/24 07:19:14;;;;;;;29.83;16.80;;;;;;;;;;5113805;28;20099;-58
2022/03/24 07:21:40;;;;;;;30.30;17.00;;;;;;;;;;5113599;28;20023;-55
2022/03/24 07:24:06;;;;;;;30.08;16.13;;;;;;;;;;5113257;28;20031;-54
2022/03/24 07:26:32;;;;;;;32.03;16.73;;;;;;;;;;5113195;28;20483;-56
2022/03/24 07:28:58;;;;;;;30.60;17.08;;;;;;;;;;5113424;28;20028;-53
2022/03/24 07:31:26;;;;;;;30.83;16.23;;;;;;;;;;5113072;28;20027;-55
2022/03/24 07:33:55;;;;;;;33.85;17.50;;;;;;;;;;5112857;28;20036;-54
2022/03/24 07:36:22;;;;;;;27.35;15.07;;;;;;;;;;5113077;28;20069;-52
2022/03/24 07:38:49;;;;;;;24.13;13.25;;;;;;;;;;5113051;28;20027;-55
2022/03/24 07:41:18;;;;;;;30.23;12.50;;;;;;;;;;5113239;28;20103;-54
2022/03/24 07:43:44;;;;;;;20.80;11.95;;;;;;;;;;5112805;28;20069;-54
2022/03/24 07:46:10;;;;;;;20.77;11.50;;;;;;;;;;5112634;28;20026;-48
2022/03/24 07:48:38;;;;;;;26.48;10.98;;;;;;;;;;5112857;28;20074;-49
2022/03/24 07:51:08;;;;;;;25.88;11.52;;;;;;;;;;5113345;28;20020;-51
2022/03/24 07:53:39;;;;;;;21.15;12.52;;;;;;;;;;5113243;28;20080;-51
2022/03/24 07:56:05;;;;;;;21.63;11.35;;;;;;;;;;5113136;28;20030;-52
2022/03/24 07:58:32;;;;;;;22.45;11.35;;;;;;;;;;5114820;28;20024;-53
2022/03/24 08:00:59;;;;;;;19.35;10.85;;;;;;;;;;5116940;28;20368;-52
2022/03/24 08:03:26;;;;;;;19.23;11.73;;;;;;;;;;5116729;28;20115;-54
2022/03/24 08:05:53;;;;;;;21.88;10.68;;;;;;;;;;5116820;28;20495;-52
2022/03/24 08:08:21;;;;;;;19.70;11.52;;;;;;;;;;5116257;28;20049;-54
2022/03/24 08:10:48;;;;;;;17.48;9.55;;;;;;;;;;5116551;28;20135;-47
2022/03/24 08:13:15;;;;;;;17.25;9.57;;;;;;;;;;5116364;28;20409;-44
2022/03/24 08:15:42;;;;;;;16.05;9.45;;;;;;;;;;5116574;28;20024;-49
2022/03/24 08:18:09;;;;;;;15.90;9.27;;;;;;;;;;5116439;28;20081;-49
2022/03/24 08:20:36;;;;;;;18.20;8.40;;;;;;;;;;5116122;28;20034;-48
2022/03/24 08:23:02;;;;;;;15.98;8.80;;;;;;;;;;5116262;28;20035;-48
2022/03/24 08:25:28;;;;;;;15.07;9.20;;;;;;;;;;5116476;28;20016;-52
2022/03/24 08:27:54;;;;;;;16.08;8.75;;;;;;;;;;5116817;28;20081;-49
2022/03/24 08:30:21;;;;;;;17.98;8.25;;;;;;;;;;5116080;28;20043;-45
2022/03/24 08:32:47;;;;;;;18.63;8.20;;;;;;;;;;5115866;28;20019;-50
2022/03/24 08:35:13;;;;;;;12.65;7.53;;;;;;;;;;5116241;28;20024;-52
2022/03/24 08:37:39;;;;;;;15.30;7.45;;;;;;;;;;5116088;28;20392;-51
2022/03/24 08:40:05;;;;;;;17.27;7.93;;;;;;;;;;5116003;28;20505;-53
2022/03/24 08:42:31;;;;;;;15.88;7.85;;;;;;;;;;5115549;28;20098;-54
2022/03/24 08:44:58;;;;;;;14.07;8.02;;;;;;;;;;5115650;28;20035;-51
2022/03/24 08:47:24;;;;;;;15.55;8.48;;;;;;;;;;5115781;28;20028;-52
2022/03/24 08:49:50;;;;;;;24.00;7.20;;;;;;;;;;5115525;28;20048;-53
2022/03/24 08:52:17;;;;;;;18.60;7.30;;;;;;;;;;5115653;28;20043;-50
2022/03/24 08:54:43;;;;;;;12.55;7.30;;;;;;;;;;5115892;28;20024;-54
2022/03/24 08:57:09;;;;;;;13.88;6.40;;;;;;;;;;5115794;28;20032;-57
2022/03/24 08:59:35;;;;;;;11.65;5.93;;;;;;;;;;5115573;28;20020;-55
2022/03/24 09:02:04;;;;;;;15.95;6.40;;;;;;;;;;5115711;28;20103;-51
2022/03/24 09:04:30;;;;;;;19.52;7.18;;;;;;;;;;5115607;28;20119;-55
2022/03/24 09:06:56;;;;;;;15.00;7.40;;;;;;;;;;5115745;28;20024;-53
2022/03/24 09:09:22;;;;;;;9.68;6.47;;;;;;;;;;5115740;28;20417;-54
2022/03/24 09:11:49;;;;;;;8.80;6.10;;;;;;;;;;5115543;28;20032;-54
2022/03/24 09:14:19;;;;;;;13.95;6.50;;;;;;;;;;5115177;28;20027;-53
2022/03/24 09:16:45;;;;;;;11.70;6.90;;;;;;;;;;5115618;28;20039;-54
2022/03/24 09:19:12;;;;;;;21.27;10.68;;;;;;;;;;5115657;28;20039;-53
2022/03/24 09:21:38;;;;;;;10.35;6.25;;;;;;;;;;5115580;28;20473;-53
2022/03/24 09:24:04;;;;;;;14.07;5.75;;;;;;;;;;5115282;28;20036;-52
2022/03/24 09:26:33;;;;;;;14.23;5.80;;;;;;;;;;5115175;28;20016;-52
2022/03/24 09:29:01;;;;;;;12.07;7.07;;;;;;;;;;5115105;28;20102;-52
2022/03/24 09:31:27;;;;;;;13.95;7.05;;;;;;;;;;5114888;28;20085;-52
2022/03/24 09:33:53;;;;;;;16.15;7.10;;;;;;;;;;5115039;28;20126;-52
2022/03/24 09:36:22;;;;;;;11.38;6.57;;;;;;;;;;5114892;28;20020;-52
2022/03/24 09:38:48;;;;;;;18.60;7.07;;;;;;;;;;5114699;28;20022;-51
2022/03/24 09:41:17;;;;;;;8.52;5.00;;;;;;;;;;5114919;28;20023;-52
2022/03/24 09:43:43;;;;;;;9.90;5.68;;;;;;;;;;5114504;28;20382;-51
2022/03/24 09:46:09;;;;;;;8.02;5.55;;;;;;;;;;5114981;28;20073;-51
2022/03/24 09:48:35;;;;;;;10.70;6.13;;;;;;;;;;5114751;28;20523;-51
2022/03/24 09:51:02;;;;;;;10.63;6.57;;;;;;;;;;5114627;28;20035;-52
2022/03/24 09:53:28;;;;;;;11.80;6.22;;;;;;;;;;5114848;28;20024;-51
2022/03/24 09:55:55;;;;;;;9.70;6.10;;;;;;;;;;5096555;28;20034;-54
2022/03/24 09:58:25;;;;;;;9.40;6.10;;;;;;;;;;5114178;28;20077;-54
2022/03/24 10:00:51;;;;;;;8.48;5.88;;;;;;;;;;5114655;28;20066;-52
2022/03/24 10:03:21;;;;;;;10.60;5.57;;;;;;;;;;5114284;28;20031;-53
2022/03/24 10:05:59;;;;;;;9.65;5.78;;;;;;;;;;5114534;28;20076;-53
2022/03/24 10:08:25;;;;;;;13.10;7.07;;;;;;;;;;5114232;28;20094;-51
2022/03/24 10:10:56;;;;;;;9.70;5.57;;;;;;;;;;5114171;28;20379;-50
2022/03/24 10:13:41;;;;;;;12.93;7.00;;;;;;;;;;5114339;28;20098;-52
2022/03/24 10:16:08;;;;;;;12.82;6.20;;;;;;;;;;5114359;28;20062;-50
2022/03/24 10:18:34;;;;;;;13.23;7.95;;;;;;;;;;5114251;28;20111;-51
2022/03/24 10:21:03;;;;;;;16.90;8.13;;;;;;;;;;5113390;28;20024;-51
2022/03/24 10:23:33;;;;;;;13.90;7.53;;;;;;;;;;5113712;28;20032;-51
2022/03/24 10:26:08;;;;;;;11.40;6.22;;;;;;;;;;5114118;28;20054;-51
2022/03/24 10:28:34;;;;;;;10.40;5.93;;;;;;;;;;5113940;28;20020;-52
2022/03/24 10:31:02;;;;;;;16.42;5.70;;;;;;;;;;5113766;28;20019;-51
2022/03/24 10:33:31;;;;;;;10.40;6.05;;;;;;;;;;5113682;28;20051;-52
2022/03/24 10:36:15;;;;;;;15.55;6.00;;;;;;;;;;5113997;28;20383;-51
2022/03/24 10:38:43;;;;;;;12.45;6.20;;;;;;;;;;5114084;28;20023;-53
2022/03/24 10:41:12;;;;;;;8.05;5.35;;;;;;;;;;5113674;28;20028;-52
2022/03/24 10:43:38;;;;;;;10.20;6.10;;;;;;;;;;5113651;28;20043;-52
2022/03/24 10:46:15;;;;;;;13.00;6.78;;;;;;;;;;5113886;28;20042;-53
2022/03/24 10:48:41;;;;;;;13.40;6.65;;;;;;;;;;5113474;28;20517;-52
2022/03/24 10:51:08;;;;;;;10.50;6.97;;;;;;;;;;5114483;27;20036;-52
2022/03/24 10:53:43;;;;;;;9.90;5.70;;;;;;;;;;5113124;28;20027;-51
2022/03/24 10:56:13;;;;;;;9.88;5.70;;;;;;;;;;5113685;28;20027;-54
2022/03/24 10:58:46;;;;;;;8.95;5.10;;;;;;;;;;5113656;28;20040;-54
2022/03/24 11:01:14;;;;;;;14.35;6.38;;;;;;;;;;5113689;28;20020;-53
2022/03/24 11:03:40;;;;;;;9.50;5.68;;;;;;;;;;5113327;28;20407;-54
2022/03/24 11:06:13;;;;;;;9.82;6.55;;;;;;;;;;5113772;28;20043;-56
2022/03/24 11:08:39;;;;;;;13.27;6.90;;;;;;;;;;5113855;28;20027;-55
2022/03/24 11:11:07;;;;;;;12.00;6.50;;;;;;;;;;5113664;28;20022;-54
2022/03/24 11:13:42;;;;;;;10.43;5.82;;;;;;;;;;5113695;28;20027;-55
2022/03/24 11:16:08;;;;;;;9.80;6.47;;;;;;;;;;5113447;28;20023;-54
2022/03/24 11:18:34;;;;;;;9.55;6.20;;;;;;;;;;5113696;28;20034;-55
2022/03/24 11:21:03;;;;;;;12.10;6.00;;;;;;;;;;5113775;28;20024;-56
2022/03/24 11:23:31;;;;;;;10.48;5.38;;;;;;;;;;5113578;28;20027;-53
2022/03/24 11:25:58;;;;;;;18.80;9.70;;;;;;;;;;5113317;28;20031;-53
2022/03/24 11:28:24;;;;;;;12.45;6.88;;;;;;;;;;5113344;28;20047;-55
2022/03/24 11:30:51;;;;;;;10.80;7.25;;;;;;;;;;5113800;28;20369;-54
2022/03/24 11:33:17;;;;;;;9.65;6.55;;;;;;;;;;5114839;28;20019;-54
2022/03/24 11:35:43;;;;;;;7.88;5.95;;;;;;;;;;5117623;28;20027;-53
2022/03/24 11:38:10;;;;;;;9.35;5.90;;;;;;;;;;5117518;28;20028;-53
2022/03/24 11:40:39;;;;;;;9.55;5.95;;;;;;;;;;5117232;28;20107;-54
2022/03/24 11:43:05;;;;;;;12.43;6.30;;;;;;;;;;5117134;28;20433;-53
2022/03/24 11:45:50;;;;;;;10.07;6.05;;;;;;;;;;5116993;28;20023;-52
2022/03/24 11:48:17;;;;;;;12.57;5.63;;;;;;;;;;5117105;28;20523;-52
2022/03/24 11:50:50;;;;;;;14.32;5.47;;;;;;;;;;5117008;28;20058;-52
2022/03/24 11:53:20;;;;;;;11.25;5.78;;;;;;;;;;5116893;28;20495;-53
2022/03/24 11:56:01;;;;;;;8.68;4.88;;;;;;;;;;5117042;28;20103;-53
2022/03/24 11:58:31;;;;;;;6.97;5.00;;;;;;;;;;5117300;28;20033;-53
2022/03/24 12:00:57;;;;;;;12.55;5.53;;;;;;;;;;5116736;28;20368;-53
2022/03/24 12:03:42;;;;;;;9.95;5.38;;;;;;;;;;5116621;28;20035;-54
2022/03/24 12:06:11;;;;;;;8.73;5.55;;;;;;;;;;5116811;28;20019;-54
2022/03/24 12:08:48;;;;;;;13.45;5.57;;;;;;;;;;5116361;28;20407;-53
2022/03/24 12:11:32;;;;;;;7.75;5.07;;;;;;;;;;5116983;28;20091;-53
2022/03/24 12:14:03;;;;;;;9.43;5.38;;;;;;;;;;5116814;28;20106;-55
2022/03/24 12:16:29;;;;;;;9.30;5.10;;;;;;;;;;5116464;28;20020;-54
2022/03/24 12:18:56;;;;;;;10.73;5.40;;;;;;;;;;5116905;28;20024;-54
2022/03/24 12:21:25;;;;;;;12.70;5.55;;;;;;;;;;5116475;28;20026;-54
2022/03/24 12:24:29;;;;;;;12.63;5.95;;;;;;;;;;5116364;28;20073;-54
2022/03/24 12:26:59;;;;;;;11.48;5.90;;;;;;;;;;5033680;28;20040;-53
2022/03/24 12:29:26;;;;;;;15.68;6.13;;;;;;;;;;5033713;28;20033;-54
2022/03/24 12:31:57;;;;;;;10.07;4.88;;;;;;;;;;5033510;28;20482;-53
2022/03/24 12:34:31;;;;;;;7.28;4.80;;;;;;;;;;5033644;28;20061;-53
2022/03/24 12:36:57;;;;;;;7.40;4.45;;;;;;;;;;5033508;28;20033;-54
2022/03/24 12:39:37;;;;;;;13.85;6.32;;;;;;;;;;5033610;28;20113;-54
2022/03/24 12:42:06;;;;;;;11.30;5.57;;;;;;;;;;5033563;28;20032;-54
2022/03/24 12:44:52;;;;;;;10.27;5.07;;;;;;;;;;5033088;28;20064;-53
2022/03/24 12:47:34;;;;;;;13.02;6.43;;;;;;;;;;5033161;28;20040;-53
2022/03/24 12:50:00;;;;;;;10.63;6.00;;;;;;;;;;5033194;28;20577;-54
2022/03/24 12:52:27;;;;;;;7.15;4.68;;;;;;;;;;5033219;28;20498;-55
2022/03/24 12:54:55;;;;;;;7.95;4.78;;;;;;;;;;5033020;28;20474;-55
2022/03/24 12:57:40;;;;;;;6.50;4.93;;;;;;;;;;5062970;28;20032;-54
2022/03/24 13:00:07;;;;;;;12.80;5.55;;;;;;;;;;5115759;28;20023;-53
2022/03/24 13:02:34;;;;;;;9.32;5.90;;;;;;;;;;5115637;28;20118;-53
2022/03/24 13:05:00;;;;;;;13.35;5.72;;;;;;;;;;5096479;28;20427;-54
2022/03/24 13:07:28;;;;;;;10.02;4.60;;;;;;;;;;5115463;28;20023;-53
2022/03/24 13:10:10;;;;;;;10.75;4.28;;;;;;;;;;5115452;28;20016;-54
2022/03/24 13:12:37;;;;;;;8.95;5.10;;;;;;;;;;5115515;28;20028;-53
2022/03/24 13:15:04;;;;;;;9.43;4.88;;;;;;;;;;5115377;28;20019;-55
2022/03/24 13:17:32;;;;;;;7.53;4.90;;;;;;;;;;5115130;28;20030;-53
2022/03/24 13:20:00;;;;;;;6.72;4.60;;;;;;;;;;5115297;28;20466;-54
2022/03/24 13:22:28;;;;;;;13.27;5.70;;;;;;;;;;5115289;28;20020;-56
2022/03/24 13:25:10;;;;;;;8.73;4.63;;;;;;;;;;5096595;28;20070;-53
2022/03/24 13:27:40;;;;;;;23.35;6.03;;;;;;;;;;5114994;28;20475;-54
2022/03/24 13:30:07;;;;;;;12.82;4.90;;;;;;;;;;5096080;28;20035;-55
2022/03/24 13:32:34;;;;;;;10.45;4.95;;;;;;;;;;5114944;28;20022;-54
2022/03/24 13:35:05;;;;;;;12.95;6.93;;;;;;;;;;5114721;28;20456;-55
2022/03/24 13:37:31;;;;;;;;;;;;;;;;;;5115609;28;20055;-53
2022/03/24 13:39:57;;;;;;;9.15;5.65;;;;;;;;;;5115001;28;19903;-53
2022/03/24 13:42:24;;;;;;;8.77;4.97;;;;;;;;;;5114458;28;20490;-53
2022/03/24 13:44:51;;;;;;;8.75;5.90;;;;;;;;;;5115136;28;20039;-54
2022/03/24 13:47:20;;;;;;;12.45;5.05;;;;;;;;;;5114739;28;20024;-54
2022/03/24 13:49:46;;;;;;;8.88;5.20;;;;;;;;;;5114482;28;20131;-54
2022/03/24 13:52:29;;;;;;;8.02;4.60;;;;;;;;;;5114823;28;20357;-54
2022/03/24 13:55:04;;;;;;;9.10;4.95;;;;;;;;;;5114427;28;20020;-54
2022/03/24 13:57:30;;;;;;;8.60;5.90;;;;;;;;;;5114266;28;20031;-54
2022/03/24 13:59:56;;;;;;;6.68;4.93;;;;;;;;;;5114267;28;20011;-54
2022/03/24 14:02:23;;;;;;;9.25;5.72;;;;;;;;;;5114485;28;20026;-53
2022/03/24 14:05:09;;;;;;;8.02;4.90;;;;;;;;;;5114224;28;20071;-54
2022/03/24 14:07:54;;;;;;;10.25;6.65;;;;;;;;;;5114634;28;20102;-54
2022/03/24 14:10:20;;;;;;;8.40;5.28;;;;;;;;;;5114286;28;20095;-54
2022/03/24 14:12:53;;;;;;;15.55;5.65;;;;;;;;;;5113871;28;20080;-54
2022/03/24 14:15:22;;;;;;;10.82;5.05;;;;;;;;;;5114493;28;20103;-55
2022/03/24 14:18:06;;;;;;;8.40;6.00;;;;;;;;;;5114034;28;20027;-55
2022/03/24 14:20:40;;;;;;;8.55;5.45;;;;;;;;;;5114270;28;20024;-55
2022/03/24 14:23:06;;;;;;;12.90;5.63;;;;;;;;;;5114132;28;20080;-54
2022/03/24 14:25:32;;;;;;;9.38;5.63;;;;;;;;;;5114004;28;20019;-54
2022/03/24 14:27:58;;;;;;;11.85;5.03;;;;;;;;;;5114115;28;20028;-54
2022/03/24 14:30:30;;;;;;;9.98;5.60;;;;;;;;;;5114288;28;20024;-54